createdAt,value
2018-09-17T00:00:13.624Z,6.47
2018-09-17T00:02:42.932Z,4.40
2018-09-17T00:05:11.446Z,7.10
2018-09-17T00:07:40.034Z,7.23
2018-09-17T00:10:09.593Z,5.40
2018-09-17T00:12:38.949Z,6.23
2018-09-17T00:15:07.675Z,7.00
2018-09-17T00:17:37.178Z,6.27
2018-09-17T00:20:05.965Z,4.43
2018-09-17T00:22:34.585Z,4.90
2018-09-17T00:25:03.231Z,5.60
2018-09-17T00:27:32.139Z,4.20
2018-09-17T00:30:00.888Z,5.73
2018-09-17T00:32:29.751Z,4.03
2018-09-17T00:34:58.400Z,8.00
2018-09-17T00:37:27.910Z,9.73
2018-09-17T00:39:57.044Z,4.33
2018-09-17T00:42:26.587Z,5.57
2018-09-17T00:44:55.361Z,3.90
2018-09-17T00:47:24.044Z,7.33
2018-09-17T00:49:52.817Z,4.40
2018-09-17T00:52:21.399Z,6.70
2018-09-17T00:54:50.006Z,4.03
2018-09-17T00:57:18.757Z,3.90
2018-09-17T00:59:47.387Z,4.60
2018-09-17T01:02:16.119Z,5.03
2018-09-17T01:04:44.734Z,5.30
2018-09-17T01:07:13.917Z,5.13
2018-09-17T01:09:44.382Z,4.73
2018-09-17T01:12:14.765Z,4.07
2018-09-17T01:14:43.648Z,5.37
2018-09-17T01:17:13.086Z,4.20
2018-09-17T01:19:41.744Z,4.83
2018-09-17T01:22:10.297Z,4.73
2018-09-17T01:24:39.911Z,5.17
2018-09-17T01:27:08.524Z,5.33
2018-09-17T01:29:37.100Z,5.10
2018-09-17T01:32:06.558Z,4.20
2018-09-17T01:34:35.754Z,5.57
2018-09-17T01:37:04.872Z,4.13
2018-09-17T01:39:33.656Z,9.57
2018-09-17T01:42:02.269Z,6.83
2018-09-17T01:44:31.002Z,9.10
2018-09-17T01:46:59.545Z,9.00
2018-09-17T01:49:28.936Z,7.33
2018-09-17T01:51:57.518Z,11.13
2018-09-17T01:54:26.108Z,8.47
2018-09-17T01:56:54.794Z,9.27
2018-09-17T01:59:23.377Z,5.07
2018-09-17T02:01:52.546Z,8.00
2018-09-17T02:04:21.323Z,4.57
2018-09-17T02:06:53.167Z,7.97
2018-09-17T02:09:22.611Z,6.20
2018-09-17T02:11:51.350Z,8.63
2018-09-17T02:14:19.949Z,9.00
2018-09-17T02:16:48.469Z,6.97
2018-09-17T02:19:17.061Z,5.97
2018-09-17T02:21:46.144Z,4.93
2018-09-17T02:24:14.840Z,4.50
2018-09-17T02:26:43.453Z,8.10
2018-09-17T02:29:12.091Z,4.60
2018-09-17T02:31:41.748Z,4.23
2018-09-17T02:34:10.258Z,4.60
2018-09-17T02:36:38.759Z,5.47
2018-09-17T02:39:08.673Z,5.50
2018-09-17T02:41:38.079Z,4.50
2018-09-17T02:44:06.710Z,3.53
2018-09-17T02:46:35.444Z,4.73
2018-09-17T02:49:04.271Z,8.83
2018-09-17T02:51:33.077Z,9.60
2018-09-17T02:54:01.604Z,5.80
2018-09-17T02:56:30.254Z,5.60
2018-09-17T02:58:58.823Z,5.00
2018-09-17T03:01:27.498Z,5.10
2018-09-17T03:03:57.297Z,8.03
2018-09-17T03:06:26.213Z,9.33
2018-09-17T03:08:54.917Z,5.20
2018-09-17T03:11:23.486Z,5.67
2018-09-17T03:13:52.193Z,10.83
2018-09-17T03:16:20.839Z,5.90
2018-09-17T03:18:54.354Z,5.37
2018-09-17T03:21:22.873Z,8.13
2018-09-17T03:23:51.590Z,6.10
2018-09-17T03:26:20.564Z,6.80
2018-09-17T03:28:49.176Z,6.23
2018-09-17T03:31:18.426Z,4.93
2018-09-17T03:33:46.973Z,4.03
2018-09-17T03:36:16.580Z,8.97
2018-09-17T03:38:48.142Z,10.83
2018-09-17T03:41:17.657Z,5.43
2018-09-17T03:43:48.686Z,7.50
2018-09-17T03:46:17.622Z,11.47
2018-09-17T03:48:46.044Z,6.60
2018-09-17T03:51:15.037Z,4.43
2018-09-17T03:53:43.832Z,10.00
2018-09-17T03:56:12.403Z,7.97
2018-09-17T03:58:41.667Z,5.00
2018-09-17T04:01:10.205Z,10.63
2018-09-17T04:03:39.430Z,10.53
2018-09-17T04:06:07.982Z,6.47
2018-09-17T04:08:37.813Z,5.30
2018-09-17T04:11:07.013Z,4.13
2018-09-17T04:13:36.702Z,5.50
2018-09-17T04:16:05.746Z,3.93
2018-09-17T04:18:34.409Z,4.83
2018-09-17T04:21:03.686Z,6.03
2018-09-17T04:23:37.351Z,5.37
2018-09-17T04:26:08.594Z,7.83
2018-09-17T04:28:38.472Z,7.37
2018-09-17T04:31:07.167Z,5.70
2018-09-17T04:33:38.094Z,4.47
2018-09-17T04:36:07.036Z,7.60
2018-09-17T04:38:35.511Z,8.50
2018-09-17T04:41:04.576Z,8.07
2018-09-17T04:43:33.373Z,7.37
2018-09-17T04:46:01.866Z,12.07
2018-09-17T04:48:30.890Z,9.27
2018-09-17T04:50:59.474Z,6.07
2018-09-17T04:53:28.684Z,4.27
2018-09-17T04:56:01.818Z,5.80
2018-09-17T04:58:30.583Z,5.03
2018-09-17T05:00:59.361Z,10.20
2018-09-17T05:03:27.889Z,6.00
2018-09-17T05:05:56.894Z,8.00
2018-09-17T05:08:25.991Z,5.50
2018-09-17T05:10:54.566Z,11.53
2018-09-17T05:13:23.608Z,6.13
2018-09-17T05:15:52.230Z,8.93
2018-09-17T05:18:21.031Z,6.67
2018-09-17T05:20:50.018Z,5.70
2018-09-17T05:23:21.446Z,6.50
2018-09-17T05:25:50.031Z,4.40
2018-09-17T05:28:18.733Z,11.73
2018-09-17T05:30:47.907Z,8.33
2018-09-17T05:33:16.497Z,11.60
2018-09-17T05:35:45.730Z,10.57
2018-09-17T05:38:14.919Z,11.47
2018-09-17T05:40:44.279Z,9.00
2018-09-17T05:43:12.952Z,11.63
2018-09-17T05:45:41.789Z,12.27
2018-09-17T05:48:10.379Z,12.80
2018-09-17T05:50:39.102Z,15.77
2018-09-17T05:53:07.858Z,7.90
2018-09-17T05:55:36.353Z,6.20
2018-09-17T05:58:05.032Z,7.63
2018-09-17T06:00:33.533Z,5.97
2018-09-17T06:03:02.112Z,8.07
2018-09-17T06:05:30.644Z,14.67
2018-09-17T06:07:59.470Z,7.23
2018-09-17T06:10:28.027Z,6.07
2018-09-17T06:12:56.643Z,6.03
2018-09-17T06:15:25.254Z,8.63
2018-09-17T06:17:54.643Z,7.63
2018-09-17T06:20:23.498Z,11.97
2018-09-17T06:22:52.716Z,8.53
2018-09-17T06:25:21.439Z,7.60
2018-09-17T06:27:50.721Z,7.83
2018-09-17T06:30:20.223Z,12.50
2018-09-17T06:32:48.858Z,12.73
2018-09-17T06:35:17.330Z,10.33
2018-09-17T06:37:46.052Z,9.30
2018-09-17T06:40:14.639Z,13.23
2018-09-17T06:42:43.531Z,14.43
2018-09-17T06:45:12.098Z,8.97
2018-09-17T06:47:40.870Z,16.90
2018-09-17T06:50:09.403Z,18.23
2018-09-17T06:52:38.072Z,10.97
2018-09-17T06:55:06.674Z,12.03
2018-09-17T06:57:35.327Z,7.97
2018-09-17T07:00:04.109Z,12.77
2018-09-17T07:02:32.575Z,17.23
2018-09-17T07:05:01.206Z,13.57
2018-09-17T07:07:29.794Z,10.63
2018-09-17T07:09:58.805Z,10.97
2018-09-17T07:12:28.181Z,18.03
2018-09-17T07:14:57.507Z,13.80
2018-09-17T07:17:25.954Z,15.67
2018-09-17T07:19:55.340Z,17.40
2018-09-17T07:22:24.126Z,17.97
2018-09-17T07:24:53.227Z,15.60
2018-09-17T07:27:22.346Z,17.40
2018-09-17T07:29:51.190Z,11.93
2018-09-17T07:32:20.635Z,13.33
2018-09-17T07:34:49.606Z,15.23
2018-09-17T07:37:18.220Z,18.73
2018-09-17T07:39:46.835Z,17.03
2018-09-17T07:42:15.481Z,17.27
2018-09-17T07:44:45.381Z,17.27
2018-09-17T07:47:14.048Z,12.37
2018-09-17T07:49:42.876Z,11.10
2018-09-17T07:52:11.474Z,16.10
2018-09-17T07:54:40.281Z,15.30
2018-09-17T07:57:08.975Z,13.97
2018-09-17T07:59:37.925Z,17.70
2018-09-17T08:02:07.191Z,14.90
2018-09-17T08:04:35.865Z,12.77
2018-09-17T08:07:05.454Z,12.37
2018-09-17T08:09:34.146Z,17.40
2018-09-17T08:12:02.865Z,13.37
2018-09-17T08:14:31.622Z,12.50
2018-09-17T08:17:00.166Z,13.90
2018-09-17T08:19:29.247Z,9.63
2018-09-17T08:21:57.906Z,12.90
2018-09-17T08:24:26.594Z,10.70
2018-09-17T08:26:55.430Z,8.10
2018-09-17T08:29:24.392Z,8.70
2018-09-17T08:31:53.009Z,12.53
2018-09-17T08:34:22.521Z,8.97
2018-09-17T08:36:51.037Z,8.13
2018-09-17T08:39:19.644Z,10.20
2018-09-17T08:41:48.505Z,9.17
2018-09-17T08:44:17.352Z,11.78
2018-09-17T08:46:46.325Z,9.87
2018-09-17T08:49:15.369Z,11.47
2018-09-17T08:51:44.119Z,8.00
2018-09-17T08:54:12.993Z,7.30
2018-09-17T08:56:49.861Z,9.08
2018-09-17T09:00:24.882Z,7.72
2018-09-17T09:02:58.794Z,12.33
2018-09-17T09:05:32.656Z,9.98
2018-09-17T09:08:01.230Z,9.93
2018-09-17T09:10:35.261Z,7.95
2018-09-17T09:13:08.845Z,6.08
2018-09-17T09:15:39.670Z,5.10
2018-09-17T09:18:09.254Z,6.83
2018-09-17T09:20:39.305Z,7.87
2018-09-17T09:23:08.803Z,5.90
2018-09-17T09:25:37.791Z,6.33
2018-09-17T09:28:07.009Z,10.48
2018-09-17T09:30:35.514Z,7.08
2018-09-17T09:33:04.209Z,7.40
2018-09-17T09:35:33.462Z,7.55
2018-09-17T09:38:02.088Z,5.55
2018-09-17T09:40:30.813Z,5.80
2018-09-17T09:42:59.430Z,7.70
2018-09-17T09:45:27.965Z,4.75
2018-09-17T09:47:57.928Z,5.70
2018-09-17T09:50:26.594Z,5.72
2018-09-17T09:52:55.202Z,4.72
2018-09-17T09:55:23.935Z,6.12
2018-09-17T09:57:52.684Z,5.15
2018-09-17T10:00:27.321Z,6.40
2018-09-17T10:03:06.161Z,9.20
2018-09-17T10:05:34.718Z,7.15
2018-09-17T10:08:03.834Z,5.17
2018-09-17T10:10:37.517Z,5.70
2018-09-17T10:13:11.453Z,4.80
2018-09-17T10:15:46.131Z,5.80
2018-09-17T10:18:19.995Z,6.60
2018-09-17T10:20:48.857Z,4.20
2018-09-17T10:23:17.650Z,4.40
2018-09-17T10:25:46.531Z,4.75
2018-09-17T10:28:16.108Z,5.30
2018-09-17T10:30:45.044Z,5.60
2018-09-17T10:33:13.520Z,5.70
2018-09-17T10:35:42.593Z,5.00
2018-09-17T10:38:11.150Z,4.17
2018-09-17T10:40:39.915Z,5.55
2018-09-17T10:43:09.786Z,5.85
2018-09-17T10:45:38.386Z,5.00
2018-09-17T10:48:07.223Z,4.30
2018-09-17T10:50:35.814Z,5.58
2018-09-17T10:53:05.395Z,5.50
2018-09-17T10:55:34.078Z,4.80
2018-09-17T10:58:02.627Z,4.20
2018-09-17T11:00:32.278Z,4.37
2018-09-17T11:03:01.743Z,3.10
2018-09-17T11:05:30.442Z,4.67
2018-09-17T11:07:59.086Z,6.78
2018-09-17T11:10:27.634Z,4.30
2018-09-17T11:12:56.220Z,5.35
2018-09-17T11:15:29.006Z,6.30
2018-09-17T11:17:57.560Z,3.60
2018-09-17T11:20:26.197Z,3.52
2018-09-17T11:22:54.686Z,4.58
2018-09-17T11:25:23.257Z,4.22
2018-09-17T11:27:52.847Z,4.28
2018-09-17T11:30:21.622Z,6.42
2018-09-17T11:32:50.584Z,4.60
2018-09-17T11:35:19.153Z,4.42
2018-09-17T11:37:48.140Z,6.42
2018-09-17T11:40:16.878Z,3.75
2018-09-17T11:42:45.721Z,4.53
2018-09-17T11:45:14.343Z,3.52
2018-09-17T11:47:43.078Z,5.45
2018-09-17T11:50:11.782Z,4.42
2018-09-17T11:52:40.299Z,4.05
2018-09-17T11:55:08.957Z,3.22
2018-09-17T11:57:37.487Z,3.92
2018-09-17T12:00:07.202Z,5.75
2018-09-17T12:02:36.703Z,3.52
2018-09-17T12:05:06.125Z,3.77
2018-09-17T12:07:42.202Z,5.95
2018-09-17T12:10:11.680Z,4.15
2018-09-17T12:12:40.777Z,3.58
2018-09-17T12:15:09.895Z,4.30
2018-09-17T12:17:39.175Z,3.98
2018-09-17T12:20:09.120Z,6.25
2018-09-17T12:22:37.732Z,6.05
2018-09-17T12:25:07.292Z,5.15
2018-09-17T12:27:35.826Z,4.80
2018-09-17T12:30:05.109Z,5.03
2018-09-17T12:32:33.853Z,4.45
2018-09-17T12:35:02.525Z,4.37
2018-09-17T12:37:31.089Z,5.67
2018-09-17T12:39:59.761Z,5.72
2018-09-17T12:42:28.280Z,4.58
2018-09-17T12:44:56.949Z,4.58
2018-09-17T12:47:25.797Z,5.55
2018-09-17T12:49:54.985Z,6.10
2018-09-17T12:52:23.538Z,8.45
2018-09-17T12:54:52.368Z,6.47
2018-09-17T12:57:20.997Z,7.42
2018-09-17T12:59:50.419Z,5.05
2018-09-17T13:02:19.159Z,6.17
2018-09-17T13:04:47.762Z,7.08
2018-09-17T13:07:17.013Z,6.90
2018-09-17T13:09:46.425Z,5.05
2018-09-17T13:12:15.169Z,3.80
2018-09-17T13:14:43.831Z,3.42
2018-09-17T13:17:12.439Z,5.55
2018-09-17T13:19:41.127Z,6.62
2018-09-17T13:22:10.019Z,6.87
2018-09-17T13:24:39.020Z,4.67
2018-09-17T13:27:07.851Z,4.30
2018-09-17T13:29:36.490Z,3.95
2018-09-17T13:32:05.367Z,3.98
2018-09-17T13:34:34.111Z,5.25
2018-09-17T13:37:03.009Z,9.13
2018-09-17T13:39:32.561Z,7.33
2018-09-17T13:42:01.518Z,6.05
2018-09-17T13:44:31.101Z,5.78
2018-09-17T13:47:00.117Z,5.97
2018-09-17T13:49:28.702Z,4.00
2018-09-17T13:51:57.925Z,5.53
2018-09-17T13:54:26.535Z,7.40
2018-09-17T13:56:56.273Z,6.28
2018-09-17T13:59:26.008Z,5.87
2018-09-17T14:01:54.542Z,3.45
2018-09-17T14:04:23.419Z,3.50
2018-09-17T14:06:53.142Z,3.35
2018-09-17T14:09:21.868Z,5.08
2018-09-17T14:11:50.467Z,3.33
2018-09-17T14:14:18.939Z,5.75
2018-09-17T14:16:47.649Z,4.60
2018-09-17T14:19:16.475Z,2.87
2018-09-17T14:21:45.048Z,4.15
2018-09-17T14:24:13.550Z,6.10
2018-09-17T14:26:42.230Z,5.40
2018-09-17T14:29:10.865Z,5.28
2018-09-17T14:31:45.546Z,4.65
2018-09-17T14:34:14.100Z,6.37
2018-09-17T14:36:42.837Z,6.28
2018-09-17T14:39:12.026Z,3.27
2018-09-17T14:41:40.953Z,4.58
2018-09-17T14:44:10.120Z,6.28
2018-09-17T14:46:38.774Z,5.78
2018-09-17T14:49:08.231Z,4.90
2018-09-17T14:51:37.094Z,4.58
2018-09-17T14:54:06.357Z,3.95
2018-09-17T14:56:35.242Z,6.12
2018-09-17T14:59:04.562Z,5.40
2018-09-17T15:01:33.314Z,4.03
2018-09-17T15:04:02.251Z,5.78
2018-09-17T15:06:30.941Z,3.85
2018-09-17T15:08:59.639Z,4.40
2018-09-17T15:11:28.437Z,4.30
2018-09-17T15:13:57.341Z,5.72
2018-09-17T15:16:25.796Z,7.87
2018-09-17T15:18:54.834Z,4.60
2018-09-17T15:21:23.568Z,3.55
2018-09-17T15:23:52.626Z,3.75
2018-09-17T15:26:21.540Z,5.10
2018-09-17T15:28:50.193Z,4.78
2018-09-17T15:31:18.920Z,5.42
2018-09-17T15:33:47.582Z,5.35
2018-09-17T15:36:16.561Z,4.15
2018-09-17T15:38:45.216Z,3.65
2018-09-17T15:41:14.506Z,4.60
2018-09-17T15:43:43.073Z,4.47
2018-09-17T15:46:11.944Z,3.87
2018-09-17T15:48:41.393Z,4.28
2018-09-17T15:51:10.606Z,3.40
2018-09-17T15:53:40.218Z,4.00
2018-09-17T15:56:08.890Z,3.25
2018-09-17T15:58:38.205Z,5.00
2018-09-17T16:01:07.756Z,8.20
2018-09-17T16:03:36.750Z,4.30
2018-09-17T16:06:06.203Z,4.75
2018-09-17T16:08:34.767Z,5.95
2018-09-17T16:11:03.538Z,4.55
2018-09-17T16:13:33.002Z,5.90
2018-09-17T16:16:02.951Z,4.22
2018-09-17T16:18:42.198Z,4.37
2018-09-17T16:21:11.221Z,4.10
2018-09-17T16:24:05.430Z,4.15
2018-09-17T16:26:50.910Z,3.92
2018-09-17T16:29:27.367Z,3.95
2018-09-17T16:31:58.461Z,4.95
2018-09-17T16:34:27.199Z,5.22
2018-09-17T16:37:00.329Z,5.15
2018-09-17T16:39:41.627Z,9.53
2018-09-17T16:47:43.583Z,6.17
2018-09-17T16:50:12.264Z,5.97
2018-09-17T16:52:40.747Z,4.87
2018-09-17T16:55:09.871Z,7.33
2018-09-17T16:57:38.701Z,10.28
2018-09-17T17:00:07.522Z,5.45
2018-09-17T17:02:36.736Z,8.25
2018-09-17T17:05:05.669Z,12.35
2018-09-17T17:07:37.243Z,11.60
2018-09-17T17:10:07.071Z,8.60
2018-09-17T17:12:35.655Z,9.30
2018-09-17T17:15:04.874Z,12.85
2018-09-17T17:17:33.694Z,7.62
2018-09-17T17:20:03.153Z,6.85
2018-09-17T17:22:31.957Z,6.08
2018-09-17T17:25:00.762Z,6.25
2018-09-17T17:27:29.631Z,5.42
2018-09-17T17:29:58.454Z,4.62
2018-09-17T17:32:27.056Z,6.40
2018-09-17T17:34:56.032Z,7.72
2018-09-17T17:37:25.505Z,5.35
2018-09-17T17:39:54.719Z,5.30
2018-09-17T17:42:23.308Z,5.58
2018-09-17T17:44:52.614Z,6.40
2018-09-17T17:47:21.725Z,4.80
2018-09-17T17:49:50.386Z,6.92
2018-09-17T17:52:19.417Z,7.92
2018-09-17T17:54:48.037Z,8.40
2018-09-17T17:57:17.716Z,7.47
2018-09-17T17:59:50.799Z,6.20
2018-09-17T18:02:19.882Z,6.72
2018-09-17T18:04:48.928Z,4.50
2018-09-17T18:07:17.667Z,3.90
2018-09-17T18:09:46.779Z,3.70
2018-09-17T18:12:16.078Z,3.33
2018-09-17T18:14:45.125Z,4.92
2018-09-17T18:17:16.496Z,6.37
2018-09-17T18:19:50.083Z,3.27
2018-09-17T18:22:18.678Z,3.07
2018-09-17T18:24:47.587Z,4.17
2018-09-17T18:27:16.555Z,2.73
2018-09-17T18:29:45.250Z,7.03
2018-09-17T18:32:14.331Z,6.47
2018-09-17T18:34:43.199Z,4.60
2018-09-17T18:37:12.744Z,4.07
2018-09-17T18:39:42.682Z,7.67
2018-09-17T18:42:11.853Z,9.27
2018-09-17T18:44:40.795Z,5.17
2018-09-17T18:47:10.536Z,4.13
2018-09-17T18:49:39.123Z,5.77
2018-09-17T18:52:08.221Z,9.77
2018-09-17T18:54:36.988Z,3.50
2018-09-17T18:57:07.095Z,4.63
2018-09-17T18:59:37.072Z,4.63
2018-09-17T19:02:06.357Z,9.07
2018-09-17T19:04:35.477Z,3.83
2018-09-17T19:07:04.634Z,4.43
2018-09-17T19:09:38.873Z,4.23
2018-09-17T19:12:08.452Z,4.93
2018-09-17T19:14:42.774Z,4.30
2018-09-17T19:17:17.028Z,8.43
2018-09-17T19:19:46.912Z,4.97
2018-09-17T19:22:21.825Z,11.27
2018-09-17T19:24:50.822Z,5.17
2018-09-17T19:27:19.445Z,8.27
2018-09-17T19:29:48.199Z,10.57
2018-09-17T19:32:17.161Z,5.90
2018-09-17T19:34:46.135Z,4.33
2018-09-17T19:37:20.790Z,7.53
2018-09-17T19:39:55.231Z,7.73
2018-09-17T19:42:24.842Z,8.00
2018-09-17T19:44:58.948Z,6.77
2018-09-17T19:47:27.802Z,6.63
2018-09-17T19:49:57.341Z,6.70
2018-09-17T19:52:26.616Z,4.80
2018-09-17T19:54:56.068Z,5.43
2018-09-17T19:57:29.997Z,7.63
2018-09-17T19:59:59.670Z,5.47
2018-09-17T20:02:28.269Z,4.90
2018-09-17T20:05:02.194Z,4.80
2018-09-17T20:07:30.820Z,6.10
2018-09-17T20:10:00.007Z,6.53
2018-09-17T20:12:30.026Z,4.80
2018-09-17T20:14:58.808Z,4.57
2018-09-17T20:17:57.100Z,6.60
2018-09-17T20:20:27.268Z,6.20
2018-09-17T20:26:06.476Z,3.97
2018-09-17T20:28:35.793Z,4.57
2018-09-17T20:34:32.038Z,4.13
2018-09-17T20:37:00.650Z,4.13
2018-09-17T20:39:58.966Z,4.87
2018-09-17T20:42:28.963Z,3.67
2018-09-17T20:44:58.442Z,8.23
2018-09-17T20:47:27.440Z,6.13
2018-09-17T20:50:10.973Z,5.50
2018-09-17T20:52:40.165Z,10.03
2018-09-17T20:55:10.697Z,11.23
2018-09-17T20:57:39.564Z,6.63
2018-09-17T21:00:08.176Z,6.07
2018-09-17T21:02:57.342Z,4.17
2018-09-17T21:05:26.133Z,5.80
2018-09-17T21:07:57.036Z,8.03
2018-09-17T21:10:30.402Z,6.63
2018-09-17T21:12:58.973Z,7.80
2018-09-17T21:15:28.074Z,5.87
2018-09-17T21:17:57.618Z,4.43
2018-09-17T21:20:26.314Z,4.73
2018-09-17T21:22:55.314Z,7.80
2018-09-17T21:25:24.336Z,7.23
2018-09-17T21:27:52.818Z,6.60
2018-09-17T21:30:21.477Z,11.97
2018-09-17T21:32:50.069Z,5.50
2018-09-17T21:35:18.831Z,6.47
2018-09-17T21:37:47.432Z,6.20
2018-09-17T21:40:16.290Z,3.87
2018-09-17T21:42:44.846Z,4.03
2018-09-17T21:45:13.705Z,7.37
2018-09-17T21:47:42.202Z,5.57
2018-09-17T21:50:11.665Z,3.93
2018-09-17T21:52:40.940Z,5.23
2018-09-17T21:55:09.842Z,4.40
2018-09-17T21:57:38.486Z,5.07
2018-09-17T22:00:08.094Z,8.10
2018-09-17T22:02:37.138Z,8.17
2018-09-17T22:05:05.956Z,7.73
2018-09-17T22:07:34.730Z,6.40
2018-09-17T22:10:03.360Z,5.53
2018-09-17T22:12:32.101Z,4.53
2018-09-17T22:15:00.812Z,8.47
2018-09-17T22:17:29.665Z,11.53
2018-09-17T22:19:59.585Z,8.80
2018-09-17T22:22:28.312Z,10.20
2018-09-17T22:24:56.901Z,6.43
2018-09-17T22:27:25.778Z,4.10
2018-09-17T22:29:54.648Z,4.23
2018-09-17T22:32:23.428Z,5.10
2018-09-17T22:34:52.248Z,6.00
2018-09-17T22:37:20.957Z,8.77
2018-09-17T22:39:49.723Z,6.23
2018-09-17T22:42:18.668Z,5.43
2018-09-17T22:44:47.151Z,7.77
2018-09-17T22:47:15.849Z,6.60
2018-09-17T22:49:44.476Z,6.97
2018-09-17T22:52:12.957Z,5.93
2018-09-17T22:54:42.462Z,6.20
2018-09-17T22:57:11.213Z,9.10
2018-09-17T22:59:40.221Z,4.23
2018-09-17T23:02:08.898Z,4.37
2018-09-17T23:04:37.838Z,3.60
2018-09-17T23:07:07.357Z,6.97
2018-09-17T23:09:36.841Z,4.53
2018-09-17T23:12:06.601Z,8.13
2018-09-17T23:14:36.462Z,5.13
2018-09-17T23:17:05.359Z,5.33
2018-09-17T23:19:34.009Z,6.50
2018-09-17T23:22:02.962Z,6.37
2018-09-17T23:24:31.660Z,5.50
2018-09-17T23:27:00.353Z,9.60
2018-09-17T23:29:28.990Z,11.20
2018-09-17T23:31:57.621Z,7.50
2018-09-17T23:34:26.816Z,5.33
2018-09-17T23:36:58.872Z,5.10
2018-09-17T23:39:27.715Z,4.20
2018-09-17T23:41:56.267Z,8.50
2018-09-17T23:44:24.952Z,7.20
2018-09-17T23:46:54.262Z,7.73
2018-09-17T23:49:22.993Z,5.17
2018-09-17T23:51:51.969Z,10.10
2018-09-17T23:54:21.260Z,8.07
2018-09-17T23:56:50.018Z,6.40
2018-09-17T23:59:18.752Z,7.93
